createdAt,value
2022-07-27T00:00:54.040Z,102535.09
2022-07-27T00:03:20.954Z,102558.97
2022-07-27T00:05:47.682Z,102574.88
2022-07-27T00:08:14.661Z,102593.38
2022-07-27T00:10:41.893Z,102608.38
2022-07-27T00:13:08.794Z,102626.06
2022-07-27T00:15:35.576Z,102638.44
2022-07-27T00:18:02.461Z,102653.44
2022-07-27T00:20:30.114Z,102666.66
2022-07-27T00:22:57.856Z,102686.06
2022-07-27T00:25:26.918Z,102688.75
2022-07-27T00:27:54.192Z,102697.72
2022-07-27T00:30:20.959Z,102693.47
2022-07-27T00:32:47.760Z,102709.38
2022-07-27T00:35:14.846Z,102726.94
2022-07-27T00:37:41.788Z,102736.66
2022-07-27T00:40:10.168Z,102750.75
2022-07-27T00:42:37.247Z,102767.50
2022-07-27T00:45:05.375Z,102776.38
2022-07-27T00:47:32.293Z,102794.84
2022-07-27T00:50:00.043Z,102813.34
2022-07-27T00:52:28.840Z,102818.66
2022-07-27T00:54:56.057Z,102831.00
2022-07-27T00:57:23.617Z,102844.19
2022-07-27T00:59:50.373Z,102853.00
2022-07-27T01:02:19.593Z,102879.31
2022-07-27T01:04:49.991Z,102883.72
2022-07-27T01:07:21.664Z,102895.09
2022-07-27T01:09:59.915Z,102913.53
2022-07-27T01:12:31.591Z,102928.41
2022-07-27T01:15:00.026Z,102945.06
2022-07-27T01:17:31.487Z,102958.16
2022-07-27T01:19:59.408Z,102976.53
2022-07-27T01:22:27.171Z,102982.63
2022-07-27T01:24:54.047Z,102986.06
2022-07-27T01:27:21.169Z,102983.44
2022-07-27T01:29:48.859Z,102984.25
2022-07-27T01:32:15.784Z,102979.81
2022-07-27T01:34:42.604Z,102971.03
2022-07-27T01:37:09.675Z,102968.31
2022-07-27T01:39:36.567Z,102954.25
2022-07-27T01:42:03.612Z,102950.66
2022-07-27T01:44:30.640Z,102947.13
2022-07-27T01:46:57.404Z,102932.19
2022-07-27T01:49:24.424Z,102926.00
2022-07-27T01:51:51.715Z,102916.31
2022-07-27T01:54:18.533Z,102909.34
2022-07-27T01:56:45.373Z,102902.28
2022-07-27T01:59:16.093Z,102902.22
2022-07-27T02:01:43.574Z,102894.22
2022-07-27T02:04:10.434Z,102870.50
2022-07-27T02:06:37.192Z,102839.69
2022-07-27T02:09:03.989Z,102822.03
2022-07-27T02:11:49.266Z,102783.28
2022-07-27T02:14:16.658Z,102745.47
2022-07-27T02:16:43.598Z,102689.22
2022-07-27T02:19:10.973Z,102638.31
2022-07-27T02:21:38.355Z,102596.19
2022-07-27T02:24:05.615Z,102567.34
2022-07-27T02:26:32.399Z,102546.38
2022-07-27T02:28:59.202Z,102517.59
2022-07-27T02:31:26.055Z,102506.41
2022-07-27T02:33:56.815Z,102496.88
2022-07-27T02:36:23.846Z,102502.28
2022-07-27T02:38:50.655Z,102490.09
2022-07-27T02:41:17.460Z,102486.72
2022-07-27T02:43:44.278Z,102485.13
2022-07-27T02:46:11.080Z,102490.50
2022-07-27T02:48:38.347Z,102494.16
2022-07-27T02:51:05.412Z,102506.53
2022-07-27T02:53:32.609Z,102505.78
2022-07-27T02:55:59.420Z,102523.38
2022-07-27T02:58:26.265Z,102533.91
2022-07-27T03:00:58.214Z,102553.19
2022-07-27T03:03:34.536Z,102566.34
2022-07-27T03:06:07.506Z,102575.16
2022-07-27T03:08:35.192Z,102592.72
2022-07-27T03:11:02.304Z,102596.22
2022-07-27T03:13:29.100Z,102604.19
2022-07-27T03:15:56.451Z,102615.59
2022-07-27T03:18:23.415Z,102618.28
2022-07-27T03:20:50.254Z,102634.91
2022-07-27T03:23:20.072Z,102641.97
2022-07-27T03:25:46.832Z,102641.13
2022-07-27T03:28:13.669Z,102661.28
2022-07-27T03:30:40.513Z,102672.69
2022-07-27T03:33:07.372Z,102690.25
2022-07-27T03:35:34.334Z,102702.47
2022-07-27T03:38:02.180Z,102713.91
2022-07-27T03:40:29.684Z,102731.38
2022-07-27T03:42:56.742Z,102736.66
2022-07-27T03:45:23.766Z,102742.78
2022-07-27T03:47:50.535Z,102754.19
2022-07-27T03:50:17.603Z,102769.94
2022-07-27T03:52:45.734Z,102783.09
2022-07-27T03:55:12.887Z,102793.59
2022-07-27T03:57:39.615Z,102814.59
2022-07-27T04:00:08.450Z,102812.84
2022-07-27T04:02:35.335Z,102823.38
2022-07-27T04:05:02.146Z,102835.63
2022-07-27T04:07:28.990Z,102823.38
2022-07-27T04:09:55.814Z,102831.25
2022-07-27T04:12:22.553Z,102830.38
2022-07-27T04:14:49.673Z,102835.63
2022-07-27T04:17:56.264Z,102839.13
2022-07-27T04:20:04.265Z,102862.81
2022-07-27T04:22:31.198Z,102883.81
2022-07-27T04:24:58.037Z,102889.94
2022-07-27T04:27:25.506Z,102895.09
2022-07-27T04:29:52.321Z,102885.44
2022-07-27T04:32:19.222Z,102876.59
2022-07-27T04:34:46.014Z,102872.13
2022-07-27T04:37:12.999Z,102860.63
2022-07-27T04:39:39.953Z,102847.31
2022-07-27T04:42:06.955Z,102841.06
2022-07-27T04:44:34.015Z,102835.53
2022-07-27T04:47:00.802Z,102827.44
2022-07-27T04:49:27.660Z,102814.88
2022-07-27T04:51:54.489Z,102808.53
2022-07-27T04:54:21.253Z,102796.81
2022-07-27T04:56:48.206Z,102783.38
2022-07-27T04:59:15.369Z,102764.66
2022-07-27T05:01:42.753Z,102751.16
2022-07-27T05:04:09.808Z,102728.94
2022-07-27T05:06:36.838Z,102703.22
2022-07-27T05:09:04.017Z,102689.72
2022-07-27T05:11:30.858Z,102678.88
2022-07-27T05:13:57.747Z,102649.56
2022-07-27T05:16:28.598Z,102640.41
2022-07-27T05:18:56.982Z,102619.81
2022-07-27T05:21:24.215Z,102586.19
2022-07-27T05:23:51.748Z,102551.81
2022-07-27T05:26:18.667Z,102528.72
2022-07-27T05:28:45.502Z,102509.41
2022-07-27T05:31:12.273Z,102492.72
2022-07-27T05:33:39.102Z,102497.22
2022-07-27T05:36:07.802Z,102494.00
2022-07-27T05:38:39.330Z,102501.50
2022-07-27T05:41:07.708Z,102503.56
2022-07-27T05:43:34.725Z,102505.03
2022-07-27T05:46:02.022Z,102463.63
2022-07-27T05:48:29.264Z,102385.91
2022-07-27T05:50:56.104Z,102344.22
2022-07-27T05:53:23.230Z,102273.34
2022-07-27T05:55:58.341Z,102213.59
2022-07-27T05:58:25.849Z,102180.06
2022-07-27T06:00:53.184Z,102164.53
2022-07-27T06:03:20.003Z,102140.63
2022-07-27T06:05:46.773Z,102130.19
2022-07-27T06:08:13.757Z,102126.25
2022-07-27T06:10:41.234Z,102115.44
2022-07-27T06:13:09.584Z,102121.66
2022-07-27T06:15:38.222Z,102116.16
2022-07-27T06:18:06.810Z,102115.56
2022-07-27T06:20:33.761Z,102108.41
2022-07-27T06:23:03.255Z,102108.84
2022-07-27T06:25:35.796Z,102108.25
2022-07-27T06:28:05.128Z,102110.78
2022-07-27T06:30:32.504Z,102118.06
2022-07-27T06:32:59.670Z,102123.72
2022-07-27T06:35:26.892Z,102110.84
2022-07-27T06:37:53.985Z,102121.06
2022-07-27T06:40:21.104Z,102115.88
2022-07-27T06:42:48.470Z,102115.09
2022-07-27T06:45:15.829Z,102124.06
2022-07-27T06:47:49.425Z,102117.66
2022-07-27T06:50:21.309Z,102120.56
2022-07-27T06:52:49.584Z,102119.34
2022-07-27T06:55:16.639Z,102116.22
2022-07-27T06:57:43.867Z,102119.84
2022-07-27T07:00:11.851Z,102119.97
2022-07-27T07:02:50.109Z,102119.09
2022-07-27T07:05:16.934Z,102118.97
2022-07-27T07:07:43.659Z,102121.09
2022-07-27T07:10:10.434Z,102121.34
2022-07-27T07:12:37.213Z,102122.78
2022-07-27T07:15:05.053Z,102123.31
2022-07-27T07:17:31.831Z,102121.41
2022-07-27T07:19:58.629Z,102141.97
2022-07-27T07:22:25.800Z,102148.94
2022-07-27T07:24:52.958Z,102143.38
2022-07-27T07:27:23.335Z,102144.44
2022-07-27T07:29:50.181Z,102146.44
2022-07-27T07:32:17.119Z,102156.41
2022-07-27T07:34:43.894Z,102143.84
2022-07-27T07:37:10.659Z,102145.03
2022-07-27T07:39:37.404Z,102154.78
2022-07-27T07:42:04.370Z,102154.53
2022-07-27T07:44:38.305Z,102158.91
2022-07-27T07:47:05.737Z,102161.50
2022-07-27T07:49:37.676Z,102167.84
2022-07-27T07:52:06.534Z,102166.00
2022-07-27T07:54:33.438Z,102168.66
2022-07-27T07:57:00.436Z,102171.78
2022-07-27T07:59:27.238Z,102176.88
2022-07-27T08:01:54.165Z,102176.38
2022-07-27T08:04:21.121Z,102181.59
2022-07-27T08:06:47.946Z,102177.59
2022-07-27T08:09:16.976Z,102180.78
2022-07-27T08:11:44.838Z,102181.88
2022-07-27T08:14:11.753Z,102178.00
2022-07-27T08:16:38.900Z,102180.16
2022-07-27T08:19:06.021Z,102172.16
2022-07-27T08:21:36.418Z,102173.59
2022-07-27T08:24:03.493Z,102173.00
2022-07-27T08:26:30.302Z,102174.56
2022-07-27T08:28:57.087Z,102172.81
2022-07-27T08:31:51.544Z,102172.47
2022-07-27T08:34:13.309Z,102176.34
2022-07-27T08:36:40.230Z,102175.06
2022-07-27T08:39:08.617Z,102187.28
2022-07-27T08:41:42.996Z,102183.47
2022-07-27T08:44:13.662Z,102190.44
2022-07-27T08:46:44.452Z,102190.13
2022-07-27T08:49:13.209Z,102181.59
2022-07-27T08:51:44.018Z,102182.25
2022-07-27T08:54:13.882Z,102185.53
2022-07-27T08:56:40.732Z,102186.13
2022-07-27T08:59:07.633Z,102178.56
2022-07-27T09:01:37.951Z,102184.25
2022-07-27T09:04:05.015Z,102177.88
2022-07-27T09:06:43.071Z,102174.47
2022-07-27T09:09:11.716Z,102174.66
2022-07-27T09:11:39.151Z,102179.25
2022-07-27T09:14:09.050Z,102178.28
2022-07-27T09:17:15.011Z,102173.88
2022-07-27T09:19:23.358Z,102188.22
2022-07-27T09:21:50.134Z,102182.16
2022-07-27T09:24:45.095Z,102188.00
2022-07-27T09:27:05.639Z,102185.13
2022-07-27T09:29:35.533Z,102190.66
2022-07-27T09:32:14.138Z,102184.41
2022-07-27T09:34:41.018Z,102193.47
2022-07-27T09:37:08.054Z,102191.88
2022-07-27T09:39:34.845Z,102192.44
2022-07-27T09:42:02.626Z,102197.78
2022-07-27T09:44:42.688Z,102193.63
2022-07-27T09:47:22.652Z,102193.09
2022-07-27T09:49:49.873Z,102188.88
2022-07-27T09:52:30.637Z,102180.75
2022-07-27T09:55:05.745Z,102192.16
2022-07-27T09:57:54.296Z,102186.06
2022-07-27T10:00:23.113Z,102194.75
2022-07-27T10:02:53.217Z,102188.16
2022-07-27T10:05:23.709Z,102195.22
2022-07-27T10:07:52.539Z,102200.63
2022-07-27T10:10:20.825Z,102207.84
2022-07-27T10:12:54.018Z,102198.97
2022-07-27T10:15:23.849Z,102202.13
2022-07-27T10:18:01.734Z,102208.63
2022-07-27T10:20:29.878Z,102203.56
2022-07-27T10:23:01.290Z,102205.28
2022-07-27T10:25:33.734Z,102207.59
2022-07-27T10:28:18.921Z,102202.50
2022-07-27T10:30:48.312Z,102206.91
2022-07-27T10:33:45.198Z,102203.56
2022-07-27T10:36:17.158Z,102203.25
2022-07-27T10:38:58.450Z,102196.53
2022-07-27T10:41:40.845Z,102201.97
2022-07-27T10:44:22.535Z,102190.41
2022-07-27T10:46:54.446Z,102181.56
2022-07-27T10:49:23.537Z,102185.63
2022-07-27T10:51:53.226Z,102185.31
2022-07-27T10:54:29.438Z,102193.34
2022-07-27T10:56:59.257Z,102203.72
2022-07-27T11:00:07.368Z,102196.78
2022-07-27T11:02:40.833Z,102201.78
2022-07-27T11:05:24.844Z,102199.75
2022-07-27T11:08:29.552Z,102191.94
2022-07-27T11:10:48.384Z,102193.88
2022-07-27T11:13:19.105Z,102200.97
2022-07-27T11:16:04.643Z,102210.03
2022-07-27T11:18:44.330Z,102210.09
2022-07-27T11:21:26.561Z,102204.25
2022-07-27T11:23:56.754Z,102203.69
2022-07-27T11:26:26.826Z,102204.69
2022-07-27T11:28:54.186Z,102208.72
2022-07-27T11:31:45.262Z,102204.34
2022-07-27T11:34:09.191Z,102209.88
2022-07-27T11:36:45.750Z,102199.19
2022-07-27T11:39:15.185Z,102204.63
2022-07-27T11:44:31.001Z,102203.03
2022-07-27T11:47:01.960Z,102210.84
2022-07-27T11:49:31.706Z,102202.66
2022-07-27T11:52:07.272Z,102209.38
2022-07-27T11:54:40.216Z,102219.53
2022-07-27T11:57:18.952Z,102219.50
2022-07-27T11:59:46.232Z,102216.53
2022-07-27T12:02:17.807Z,102217.63
2022-07-27T12:04:46.917Z,102223.78
2022-07-27T12:07:28.722Z,102223.50
2022-07-27T12:09:58.446Z,102215.44
2022-07-27T12:12:26.964Z,102215.81
2022-07-27T12:14:57.157Z,102214.59
2022-07-27T12:17:40.435Z,102215.44
2022-07-27T12:20:17.827Z,102226.16
2022-07-27T12:22:46.912Z,102223.72
2022-07-27T12:25:17.040Z,102223.41
2022-07-27T12:27:56.537Z,102222.88
2022-07-27T12:30:29.736Z,102217.34
2022-07-27T12:32:56.766Z,102227.84
2022-07-27T12:35:25.140Z,102214.09
2022-07-27T12:38:04.122Z,102214.53
2022-07-27T12:40:32.708Z,102212.47
2022-07-27T12:43:05.151Z,102222.31
2022-07-27T12:45:35.207Z,102218.50
2022-07-27T12:48:13.679Z,102211.94
2022-07-27T12:50:42.241Z,102215.81
2022-07-27T12:53:10.988Z,102221.34
2022-07-27T12:55:37.989Z,102213.97
2022-07-27T12:58:04.905Z,102215.00
2022-07-27T13:00:33.852Z,102225.59
2022-07-27T13:03:02.385Z,102218.38
2022-07-27T13:05:29.755Z,102209.22
2022-07-27T13:07:56.668Z,102218.84
2022-07-27T13:10:23.890Z,102216.94
2022-07-27T13:12:51.288Z,102215.09
2022-07-27T13:15:18.794Z,102221.75
2022-07-27T13:17:46.593Z,102224.63
2022-07-27T13:20:14.950Z,102224.38
2022-07-27T13:22:43.789Z,102218.91
2022-07-27T13:25:15.975Z,102214.59
2022-07-27T13:27:45.174Z,102225.53
2022-07-27T13:30:13.524Z,102226.38
2022-07-27T13:32:41.142Z,102214.78
2022-07-27T13:35:12.283Z,102229.88
2022-07-27T13:37:40.101Z,102228.50
2022-07-27T13:40:09.450Z,102228.16
2022-07-27T13:42:36.482Z,102235.47
2022-07-27T13:45:09.744Z,102226.56
2022-07-27T13:47:38.010Z,102243.28
2022-07-27T13:50:05.542Z,102238.13
2022-07-27T13:52:32.434Z,102231.91
2022-07-27T13:54:59.217Z,102230.56
2022-07-27T13:57:25.980Z,102235.91
2022-07-27T13:59:53.454Z,102228.13
2022-07-27T14:02:23.201Z,102226.59
2022-07-27T14:04:53.319Z,102230.06
2022-07-27T14:07:24.834Z,102234.53
2022-07-27T14:10:13.439Z,102231.25
2022-07-27T14:12:40.331Z,102224.25
2022-07-27T14:15:07.812Z,102228.19
2022-07-27T14:17:34.961Z,102222.41
2022-07-27T14:20:01.770Z,102211.56
2022-07-27T14:22:28.763Z,102214.69
2022-07-27T14:24:55.535Z,102211.25
2022-07-27T14:27:22.321Z,102217.22
2022-07-27T14:29:49.167Z,102219.81
2022-07-27T14:32:15.947Z,102217.19
2022-07-27T14:34:44.454Z,102219.06
2022-07-27T14:37:11.427Z,102209.59
2022-07-27T14:39:39.330Z,102204.22
2022-07-27T14:42:06.512Z,102203.69
2022-07-27T14:44:35.087Z,102198.75
2022-07-27T14:47:02.080Z,102193.03
2022-07-27T14:49:29.321Z,102212.75
2022-07-27T14:51:56.814Z,102205.28
2022-07-27T14:54:23.568Z,102214.56
2022-07-27T14:56:50.382Z,102234.53
2022-07-27T14:59:17.368Z,102223.06
2022-07-27T15:01:44.519Z,102225.56
2022-07-27T15:04:11.506Z,102213.19
2022-07-27T15:06:39.234Z,102219.53
2022-07-27T15:09:07.728Z,102219.47
2022-07-27T15:11:34.674Z,102228.22
2022-07-27T15:14:03.420Z,102226.97
2022-07-27T15:16:32.387Z,102220.91
2022-07-27T15:18:59.550Z,102223.19
2022-07-27T15:21:27.029Z,102221.19
2022-07-27T15:23:53.804Z,102231.44
2022-07-27T15:26:20.620Z,102224.66
2022-07-27T15:28:47.454Z,102240.88
2022-07-27T15:31:14.463Z,102244.72
2022-07-27T15:33:41.593Z,102237.59
2022-07-27T15:36:08.502Z,102226.88
2022-07-27T15:38:37.312Z,102218.06
2022-07-27T15:41:04.741Z,102217.81
2022-07-27T15:43:31.529Z,102225.72
2022-07-27T15:45:58.311Z,102224.94
2022-07-27T15:48:26.242Z,102229.31
2022-07-27T15:50:54.465Z,102223.19
2022-07-27T15:53:22.482Z,102221.28
2022-07-27T15:55:49.931Z,102217.66
2022-07-27T15:58:19.668Z,102216.41
2022-07-27T16:00:48.736Z,102208.91
2022-07-27T16:03:16.113Z,102196.66
2022-07-27T16:05:44.801Z,102196.47
2022-07-27T16:08:11.786Z,102208.97
2022-07-27T16:10:39.773Z,102205.41
2022-07-27T16:13:07.706Z,102201.88
2022-07-27T16:15:54.061Z,102205.97
2022-07-27T16:18:21.535Z,102215.81
2022-07-27T16:20:48.280Z,102208.78
2022-07-27T16:23:18.771Z,102198.31
2022-07-27T16:26:07.981Z,102199.84
2022-07-27T16:28:40.867Z,102192.78
2022-07-27T16:31:11.644Z,102194.72
2022-07-27T16:33:38.841Z,102195.13
2022-07-27T16:36:06.028Z,102193.22
2022-07-27T16:38:35.033Z,102198.38
2022-07-27T16:41:05.584Z,102182.88
2022-07-27T16:43:37.568Z,102195.28
2022-07-27T16:46:07.507Z,102192.63
2022-07-27T16:48:41.503Z,102199.44
2022-07-27T16:51:10.926Z,102196.88
2022-07-27T16:53:43.250Z,102197.31
2022-07-27T16:56:11.409Z,102200.59
2022-07-27T16:58:39.349Z,102193.81
2022-07-27T17:01:06.809Z,102196.38
2022-07-27T17:03:34.204Z,102196.31
2022-07-27T17:06:05.987Z,102199.47
2022-07-27T17:08:33.957Z,102193.81
2022-07-27T17:11:02.359Z,102187.56
2022-07-27T17:13:33.963Z,102196.19
2022-07-27T17:16:06.955Z,102192.63
2022-07-27T17:18:39.923Z,102199.81
2022-07-27T17:21:12.327Z,102190.31
2022-07-27T17:23:40.691Z,102202.47
2022-07-27T17:26:09.603Z,102208.84
2022-07-27T17:28:39.368Z,102206.09
2022-07-27T17:31:09.556Z,102209.97
2022-07-27T17:33:37.114Z,102202.75
2022-07-27T17:36:04.371Z,102198.69
2022-07-27T17:38:31.240Z,102202.66
2022-07-27T17:40:58.140Z,102204.38
2022-07-27T17:43:24.927Z,102196.53
2022-07-27T17:45:51.831Z,102212.09
2022-07-27T17:48:18.757Z,102215.91
2022-07-27T17:50:45.559Z,102205.84
2022-07-27T17:53:12.334Z,102209.31
2022-07-27T17:55:40.229Z,102201.72
2022-07-27T17:58:07.098Z,102198.31
2022-07-27T18:00:34.049Z,102197.09
2022-07-27T18:03:00.971Z,102196.59
2022-07-27T18:05:27.805Z,102191.22
2022-07-27T18:07:54.686Z,102198.81
2022-07-27T18:10:21.584Z,102196.38
2022-07-27T18:12:48.425Z,102204.78
2022-07-27T18:15:34.811Z,102199.66
2022-07-27T18:18:02.405Z,102201.88
2022-07-27T18:20:29.234Z,102201.75
2022-07-27T18:22:56.119Z,102204.94
2022-07-27T18:25:23.087Z,102203.69
2022-07-27T18:27:50.326Z,102210.97
2022-07-27T18:30:18.061Z,102216.75
2022-07-27T18:32:48.122Z,102219.94
2022-07-27T18:35:15.066Z,102216.72
2022-07-27T18:37:42.061Z,102219.81
2022-07-27T18:40:09.646Z,102228.94
2022-07-27T18:42:38.355Z,102226.53
2022-07-27T18:45:11.575Z,102222.44
2022-07-27T18:47:38.498Z,102226.94
2022-07-27T18:50:06.734Z,102230.56
2022-07-27T18:52:34.235Z,102234.09
2022-07-27T18:55:01.161Z,102233.25
2022-07-27T18:57:28.953Z,102240.41
2022-07-27T18:59:55.725Z,102241.41
2022-07-27T19:02:23.656Z,102247.06
2022-07-27T19:04:54.031Z,102251.78
2022-07-27T19:07:22.083Z,102260.06
2022-07-27T19:09:50.788Z,102270.91
2022-07-27T19:12:17.599Z,102277.38
2022-07-27T19:14:44.582Z,102280.13
2022-07-27T19:17:20.129Z,102276.91
2022-07-27T19:19:47.454Z,102284.16
2022-07-27T19:22:15.034Z,102294.28
2022-07-27T19:24:41.812Z,102292.03
2022-07-27T19:27:09.320Z,102302.81
2022-07-27T19:29:36.105Z,102303.81
2022-07-27T19:32:02.878Z,102311.34
2022-07-27T19:34:29.685Z,102327.50
2022-07-27T19:36:56.894Z,102339.13
2022-07-27T19:39:23.693Z,102340.91
2022-07-27T19:41:50.434Z,102340.91
2022-07-27T19:44:22.059Z,102348.03
2022-07-27T19:46:49.380Z,102367.16
2022-07-27T19:49:18.432Z,102368.41
2022-07-27T19:51:45.471Z,102379.19
2022-07-27T19:54:12.244Z,102390.84
2022-07-27T19:56:39.125Z,102408.59
2022-07-27T19:59:06.666Z,102407.94
2022-07-27T20:01:33.753Z,102417.81
2022-07-27T20:04:00.926Z,102433.72
2022-07-27T20:06:27.815Z,102446.13
2022-07-27T20:08:59.427Z,102463.75
2022-07-27T20:11:28.309Z,102474.31
2022-07-27T20:13:55.126Z,102496.31
2022-07-27T20:16:22.063Z,102504.22
2022-07-27T20:18:48.941Z,102515.69
2022-07-27T20:21:22.396Z,102532.44
2022-07-27T20:23:52.327Z,102535.97
2022-07-27T20:26:20.020Z,102547.44
2022-07-27T20:28:49.934Z,102554.50
2022-07-27T20:31:17.494Z,102551.91
2022-07-27T20:33:44.481Z,102563.38
2022-07-27T20:36:11.577Z,102571.28
2022-07-27T20:38:38.496Z,102587.91
2022-07-27T20:41:05.299Z,102593.06
2022-07-27T20:43:32.419Z,102593.03
2022-07-27T20:45:59.234Z,102618.41
2022-07-27T20:48:26.103Z,102607.03
2022-07-27T20:50:53.226Z,102611.44
2022-07-27T20:53:20.415Z,102607.97
2022-07-27T20:55:48.099Z,102610.59
2022-07-27T20:58:15.124Z,102612.34
2022-07-27T21:00:41.893Z,102614.13
2022-07-27T21:03:08.716Z,102620.28
2022-07-27T21:05:35.559Z,102626.44
2022-07-27T21:08:02.494Z,102627.31
2022-07-27T21:10:29.339Z,102624.75
2022-07-27T21:12:56.492Z,102637.06
2022-07-27T21:15:23.322Z,102636.22
2022-07-27T21:18:01.011Z,102645.00
2022-07-27T21:20:28.919Z,102644.16
2022-07-27T21:23:14.305Z,102650.34
2022-07-27T21:25:41.087Z,102659.16
2022-07-27T21:28:10.189Z,102675.00
2022-07-27T21:30:39.288Z,102686.38
2022-07-27T21:33:09.042Z,102698.69
2022-07-27T21:35:35.971Z,102713.63
2022-07-27T21:38:04.665Z,102718.88
2022-07-27T21:40:32.333Z,102738.16
2022-07-27T21:42:59.125Z,102741.72
2022-07-27T21:45:25.967Z,102751.31
2022-07-27T21:47:52.822Z,102764.53
2022-07-27T21:50:19.749Z,102773.28
2022-07-27T21:52:46.680Z,102780.31
2022-07-27T21:55:13.448Z,102789.97
2022-07-27T21:57:50.720Z,102790.84
2022-07-27T22:00:23.822Z,102801.38
2022-07-27T22:02:52.267Z,102804.91
2022-07-27T22:05:19.316Z,102807.53
2022-07-27T22:07:46.052Z,102815.41
2022-07-27T22:10:12.892Z,102828.56
2022-07-27T22:12:39.673Z,102828.56
2022-07-27T22:15:06.935Z,102837.38
2022-07-27T22:17:33.747Z,102832.97
2022-07-27T22:20:00.661Z,102848.78
2022-07-27T22:22:27.499Z,102856.66
2022-07-27T22:24:54.283Z,102859.28
2022-07-27T22:27:21.176Z,102867.19
2022-07-27T22:29:47.942Z,102875.94
2022-07-27T22:32:14.786Z,102885.56
2022-07-27T22:34:41.555Z,102887.34
2022-07-27T22:37:08.336Z,102888.22
2022-07-27T22:39:35.520Z,102902.22
2022-07-27T22:42:04.554Z,102911.81
2022-07-27T22:44:31.303Z,102915.34
2022-07-27T22:46:58.302Z,102924.09
2022-07-27T22:49:25.149Z,102937.22
2022-07-27T22:51:52.901Z,102949.50
2022-07-27T22:54:21.470Z,102962.63
2022-07-27T22:56:48.445Z,102961.75
2022-07-27T22:59:15.350Z,102973.13
2022-07-27T23:01:46.987Z,102988.91
2022-07-27T23:04:16.760Z,102991.53
2022-07-27T23:06:44.431Z,103001.19
2022-07-27T23:09:11.306Z,103008.19
2022-07-27T23:11:38.308Z,103024.84
2022-07-27T23:14:05.139Z,103023.13
2022-07-27T23:16:31.984Z,103034.53
2022-07-27T23:18:58.783Z,103044.19
2022-07-27T23:21:25.705Z,103040.66
2022-07-27T23:23:53.749Z,103039.78
2022-07-27T23:26:22.947Z,103036.25
2022-07-27T23:28:53.148Z,103039.72
2022-07-27T23:31:19.922Z,103039.72
2022-07-27T23:33:47.085Z,103032.66
2022-07-27T23:36:14.008Z,103036.16
2022-07-27T23:38:40.918Z,103032.63
2022-07-27T23:41:08.297Z,103031.75
2022-07-27T23:43:35.088Z,103038.75
2022-07-27T23:46:03.080Z,103052.72
2022-07-27T23:48:29.905Z,103063.22
2022-07-27T23:50:56.715Z,103064.06
2022-07-27T23:53:23.995Z,103075.47
2022-07-27T23:55:51.138Z,103087.72
2022-07-27T23:58:17.875Z,103091.19
